Terminal Aerodrome Forecast
Issued by NWS Sterling, VA

Current Version | Previous Version | Graphics & Text | Print | Product List | Glossary On
Versions: 1 2 3 4 5 6 7 8 9 10 11 12 13 14 15 16 17 18 19 20 21 22 23 24 25 26
459
FTUS41 KLWX 041738
TAFIAD
TAF
KIAD 041738Z 0418/0524 00000KT P6SM SCT050 OVC250
     FM050000 15004KT P6SM -RAPL SCT070 OVC090
     FM050600 16007KT 6SM -RA SCT008 OVC010
     FM050900 18007KT 5SM BR OVC008
     FM051200 20005KT 6SM BR SCT008 OVC020
     FM051500 27005KT P6SM SCT008 BKN150=

USA.gov is the U.S. government's official web portal to all federal, state and local government web resources and services.